Time;durP1;ratioP1;P1;durP2;ratioP2;P2;SDS_P1;SDS_P2;PMS_P1;PMS_P2;Temp;Humidity;BMP_temperature;BMP_pressure;BME280_temperature;BME280_humidity;BME280_pressure;Samples;Min_cycle;Max_cycle;Signal;HPM_P1;HPM_P2
2022/10/16 00:01:34;;;;;;;8.17;5.63;;;14.00;99.90;;;;;;5016531;28;20235;-48
2022/10/16 00:04:02;;;;;;;7.10;6.37;;;13.90;99.90;;;;;;5025541;28;20274;-47
2022/10/16 00:06:30;;;;;;;6.50;5.60;;;13.90;99.90;;;;;;5032073;28;20203;-52
2022/10/16 00:08:59;;;;;;;8.77;5.53;;;14.00;99.90;;;;;;5031631;28;20199;-51
2022/10/16 00:11:28;;;;;;;7.37;6.00;;;13.90;99.90;;;;;;5030752;28;20219;-50
2022/10/16 00:13:58;;;;;;;7.23;5.80;;;13.90;99.90;;;;;;5028950;28;20219;-49
2022/10/16 00:16:25;;;;;;;5.90;5.40;;;13.90;99.90;;;;;;5027300;28;20195;-51
2022/10/16 00:18:52;;;;;;;8.23;5.97;;;13.90;99.90;;;;;;5022363;28;20211;-52
2022/10/16 00:21:21;;;;;;;5.67;5.17;;;13.90;99.90;;;;;;5037476;28;20314;-50
2022/10/16 00:23:51;;;;;;;6.23;5.63;;;13.90;99.90;;;;;;5039225;28;20187;-48
2022/10/16 00:26:20;;;;;;;8.50;5.47;;;13.90;99.90;;;;;;5034680;28;20207;-50
2022/10/16 00:28:48;;;;;;;5.80;5.23;;;13.90;99.90;;;;;;5036471;28;20227;-50
2022/10/16 00:31:15;;;;;;;7.23;5.77;;;13.90;99.90;;;;;;5034605;28;20215;-50
2022/10/16 00:33:42;;;;;;;6.47;4.60;;;13.90;99.90;;;;;;5020939;28;20207;-47
2022/10/16 00:36:11;;;;;;;5.37;4.70;;;13.90;99.90;;;;;;5039392;28;20203;-48
2022/10/16 00:38:38;;;;;;;5.37;4.53;;;13.90;99.90;;;;;;5030196;28;20221;-45
2022/10/16 00:41:05;;;;;;;5.67;4.47;;;13.90;99.90;;;;;;5035567;28;20294;-49
2022/10/16 00:43:40;;;;;;;5.30;4.20;;;13.90;99.90;;;;;;5039823;28;20195;-48
2022/10/16 00:46:14;;;;;;;5.47;4.07;;;13.90;99.90;;;;;;5044480;28;20206;-49
2022/10/16 00:48:41;;;;;;;3.20;3.00;;;13.90;99.90;;;;;;5021828;28;20451;-49
2022/10/16 00:51:08;;;;;;;3.93;3.27;;;13.90;99.90;;;;;;5036559;28;20562;-50
2022/10/16 00:53:36;;;;;;;3.57;2.97;;;13.90;99.90;;;;;;5038809;28;20196;-52
2022/10/16 00:56:03;;;;;;;4.80;3.07;;;14.00;99.90;;;;;;5036982;28;20211;-50
2022/10/16 00:58:30;;;;;;;5.27;3.00;;;14.00;99.90;;;;;;5038442;28;20211;-50
2022/10/16 01:00:58;;;;;;;2.63;2.00;;;14.00;99.90;;;;;;5032090;28;20226;-45
2022/10/16 01:03:28;;;;;;;6.10;2.73;;;14.00;99.90;;;;;;5025798;28;20199;-50
2022/10/16 01:06:10;;;;;;;5.83;2.83;;;14.00;99.90;;;;;;5036788;28;20197;-46
2022/10/16 01:08:45;;;;;;;4.00;2.70;;;14.00;99.90;;;;;;5033898;28;20203;-50
2022/10/16 01:11:17;;;;;;;5.30;2.60;;;14.00;99.90;;;;;;5033910;28;20234;-46
2022/10/16 01:13:49;;;;;;;6.40;2.30;;;14.00;99.90;;;;;;5039254;28;20192;-45
2022/10/16 01:16:25;;;;;;;2.83;2.40;;;13.90;99.90;;;;;;5022308;28;20187;-50
2022/10/16 01:18:58;;;;;;;5.77;2.03;;;13.90;99.90;;;;;;5025067;28;20925;-49
2022/10/16 01:21:28;;;;;;;2.90;2.20;;;13.90;99.90;;;;;;5025419;28;20227;-52
2022/10/16 01:24:04;;;;;;;3.47;2.33;;;13.90;99.90;;;;;;5039380;28;20957;-47
2022/10/16 01:26:42;;;;;;;2.23;1.87;;;13.90;99.90;;;;;;5030285;28;20289;-47
2022/10/16 01:29:15;;;;;;;5.27;1.90;;;13.90;99.90;;;;;;5043851;28;20600;-48
2022/10/16 01:31:48;;;;;;;2.00;1.90;;;13.80;99.90;;;;;;5039817;28;20194;-47
2022/10/16 01:34:18;;;;;;;2.20;2.00;;;13.80;99.90;;;;;;5032756;28;20203;-48
2022/10/16 01:36:50;;;;;;;3.57;2.03;;;13.80;99.90;;;;;;5025682;28;20207;-49
2022/10/16 01:39:21;;;;;;;4.63;2.23;;;13.80;99.90;;;;;;5033416;28;20769;-52
2022/10/16 01:41:53;;;;;;;2.70;1.90;;;13.70;99.90;;;;;;5032165;28;20344;-46
2022/10/16 01:44:25;;;;;;;3.70;1.73;;;13.70;99.90;;;;;;5041776;28;20191;-51
2022/10/16 01:46:53;;;;;;;3.53;2.00;;;13.70;99.90;;;;;;5039266;28;20191;-48
2022/10/16 01:49:22;;;;;;;3.07;1.53;;;13.60;99.90;;;;;;5039041;28;20270;-51
2022/10/16 01:51:53;;;;;;;1.70;1.60;;;13.60;99.90;;;;;;5024299;28;20210;-51
2022/10/16 01:54:21;;;;;;;2.77;1.90;;;13.60;99.90;;;;;;5036662;28;20191;-53
2022/10/16 01:56:49;;;;;;;5.30;2.13;;;13.60;99.90;;;;;;5033492;28;22852;-45
2022/10/16 01:59:19;;;;;;;3.20;2.00;;;13.60;99.90;;;;;;5036550;28;20222;-49
2022/10/16 02:01:51;;;;;;;1.60;1.50;;;13.60;99.90;;;;;;5036833;28;20202;-51
2022/10/16 02:04:22;;;;;;;3.97;1.87;;;13.60;99.90;;;;;;5037950;28;20679;-51
2022/10/16 02:06:49;;;;;;;1.97;1.20;;;13.50;99.90;;;;;;5027067;28;20809;-46
2022/10/16 02:09:16;;;;;;;1.97;1.73;;;13.50;99.90;;;;;;5038511;28;20199;-50
2022/10/16 02:11:43;;;;;;;3.80;1.60;;;13.50;99.90;;;;;;5030171;28;20218;-47
2022/10/16 02:14:10;;;;;;;20.47;1.90;;;13.50;99.90;;;;;;5041699;28;20199;-50
2022/10/16 02:16:40;;;;;;;3.23;1.70;;;13.50;99.90;;;;;;5037983;28;20188;-48
2022/10/16 02:19:09;;;;;;;3.37;1.63;;;13.40;99.90;;;;;;5037795;28;20222;-49
2022/10/16 02:21:42;;;;;;;2.90;1.60;;;13.40;99.90;;;;;;5021615;28;20230;-52
2022/10/16 02:24:15;;;;;;;3.77;1.60;;;13.40;99.90;;;;;;5036796;28;20207;-46
2022/10/16 02:26:46;;;;;;;3.93;1.90;;;13.40;99.90;;;;;;5038791;28;20221;-48
2022/10/16 02:29:18;;;;;;;2.00;1.30;;;13.30;99.90;;;;;;5036270;28;20676;-48
2022/10/16 02:31:49;;;;;;;3.87;1.77;;;13.30;99.90;;;;;;5034782;28;20191;-49
2022/10/16 02:34:19;;;;;;;3.47;1.40;;;13.30;99.90;;;;;;5034067;28;20199;-48
2022/10/16 02:36:46;;;;;;;2.10;1.40;;;13.30;99.90;;;;;;5038539;28;20202;-46
2022/10/16 02:39:14;;;;;;;3.83;1.57;;;13.20;99.90;;;;;;5021204;28;20223;-50
2022/10/16 02:41:41;;;;;;;2.33;1.37;;;13.20;99.90;;;;;;5031733;28;20218;-48
2022/10/16 02:44:07;;;;;;;3.07;1.40;;;13.20;99.90;;;;;;5034648;28;20227;-47
2022/10/16 02:46:34;;;;;;;2.37;1.40;;;13.20;99.90;;;;;;5032317;28;20196;-52
2022/10/16 02:49:00;;;;;;;2.83;1.53;;;13.20;99.90;;;;;;5022332;28;20187;-49
2022/10/16 02:51:29;;;;;;;2.47;1.33;;;13.10;99.90;;;;;;5025079;28;20217;-48
2022/10/16 02:53:56;;;;;;;4.47;1.10;;;13.10;99.90;;;;;;5018685;28;20203;-47
2022/10/16 02:56:23;;;;;;;1.70;1.20;;;13.10;99.90;;;;;;5039931;28;20199;-50
2022/10/16 02:58:50;;;;;;;1.30;0.90;;;13.10;99.90;;;;;;5036966;28;20388;-49
2022/10/16 03:01:17;;;;;;;1.67;1.47;;;13.10;99.90;;;;;;5044845;28;20323;-53
2022/10/16 03:03:44;;;;;;;2.83;1.50;;;13.10;99.90;;;;;;5035546;28;20191;-47
2022/10/16 03:06:10;;;;;;;1.87;1.30;;;13.00;99.90;;;;;;5045590;28;20198;-50
2022/10/16 03:08:39;;;;;;;1.20;1.10;;;13.00;99.90;;;;;;5027288;28;20982;-46
2022/10/16 03:11:05;;;;;;;2.27;1.10;;;13.00;99.90;;;;;;5041100;28;20887;-47
2022/10/16 03:13:32;;;;;;;4.17;1.40;;;13.00;99.90;;;;;;5036287;28;20207;-50
2022/10/16 03:15:59;;;;;;;3.57;1.50;;;12.90;99.90;;;;;;5044662;28;20227;-47
2022/10/16 03:18:25;;;;;;;3.60;1.10;;;12.90;99.90;;;;;;5044347;28;20192;-51
2022/10/16 03:20:52;;;;;;;1.70;1.23;;;12.90;99.90;;;;;;5043537;28;20219;-46
2022/10/16 03:23:18;;;;;;;1.80;1.57;;;12.80;99.90;;;;;;5036515;28;20562;-51
2022/10/16 03:25:46;;;;;;;1.73;1.33;;;12.80;99.90;;;;;;5023792;28;21051;-50
2022/10/16 03:28:13;;;;;;;2.17;1.40;;;12.80;99.90;;;;;;5044459;28;20195;-48
2022/10/16 03:30:40;;;;;;;2.27;1.13;;;12.80;99.90;;;;;;5034266;28;20215;-47
2022/10/16 03:33:07;;;;;;;4.57;1.33;;;12.70;99.90;;;;;;5043689;28;20203;-49
2022/10/16 03:35:34;;;;;;;1.87;1.27;;;12.70;99.90;;;;;;5040721;28;20198;-53
2022/10/16 03:38:00;;;;;;;2.50;1.37;;;12.70;99.90;;;;;;5044522;28;20249;-46
2022/10/16 03:40:27;;;;;;;1.83;1.20;;;12.70;99.90;;;;;;5027200;28;20235;-51
2022/10/16 03:42:57;;;;;;;2.37;1.10;;;12.70;99.90;;;;;;5041705;28;20199;-49
2022/10/16 03:45:23;;;;;;;4.30;1.30;;;12.70;99.90;;;;;;5034807;28;20203;-51
2022/10/16 03:47:51;;;;;;;1.90;1.20;;;12.70;99.90;;;;;;5035298;28;20207;-47
2022/10/16 03:50:17;;;;;;;2.73;1.30;;;12.70;99.90;;;;;;5044841;28;20215;-51
2022/10/16 03:52:44;;;;;;;3.17;1.60;;;12.70;99.90;;;;;;5041010;28;20210;-48
2022/10/16 03:55:11;;;;;;;2.73;1.23;;;12.70;99.90;;;;;;5044072;28;20660;-46
2022/10/16 03:57:38;;;;;;;5.37;1.80;;;12.70;99.90;;;;;;5022856;28;20202;-51
2022/10/16 04:00:08;;;;;;;4.30;1.20;;;12.70;99.90;;;;;;5044002;28;20728;-46
2022/10/16 04:02:38;;;;;;;2.50;1.50;;;12.70;99.90;;;;;;5032705;28;20213;-46
2022/10/16 04:05:06;;;;;;;1.80;1.07;;;12.70;99.90;;;;;;5043015;28;20219;-49
2022/10/16 04:07:32;;;;;;;3.63;1.17;;;12.70;99.90;;;;;;5039701;28;20668;-49
2022/10/16 04:09:59;;;;;;;4.47;1.10;;;12.70;99.90;;;;;;5044819;28;20224;-51
2022/10/16 04:12:27;;;;;;;1.53;1.10;;;12.70;99.90;;;;;;5027348;28;20612;-53
2022/10/16 04:14:54;;;;;;;3.93;1.63;;;12.70;99.90;;;;;;5039604;28;20921;-47
2022/10/16 04:17:22;;;;;;;1.67;1.50;;;12.70;99.90;;;;;;5036678;28;20211;-49
2022/10/16 04:19:48;;;;;;;2.20;1.53;;;12.70;99.90;;;;;;5041134;28;20211;-48
2022/10/16 04:22:16;;;;;;;4.87;1.73;;;12.70;99.90;;;;;;5044843;28;20199;-47
2022/10/16 04:24:42;;;;;;;1.90;0.90;;;12.70;99.90;;;;;;5032661;28;20195;-49
2022/10/16 04:27:09;;;;;;;3.20;1.07;;;12.70;99.90;;;;;;5030225;28;20207;-46
2022/10/16 04:29:37;;;;;;;5.97;1.13;;;12.70;99.90;;;;;;5035474;28;20219;-48
2022/10/16 04:32:03;;;;;;;1.40;1.00;;;12.70;99.90;;;;;;5036197;28;20538;-48
2022/10/16 04:34:32;;;;;;;2.93;1.00;;;12.70;99.90;;;;;;5040614;28;20206;-51
2022/10/16 04:36:59;;;;;;;2.40;1.40;;;12.70;99.90;;;;;;5042333;28;20195;-46
2022/10/16 04:39:25;;;;;;;1.70;1.00;;;12.70;99.90;;;;;;5041113;28;20191;-51
2022/10/16 04:41:53;;;;;;;1.00;0.90;;;12.70;99.90;;;;;;5029735;28;20262;-52
2022/10/16 04:44:19;;;;;;;1.20;0.90;;;12.70;99.90;;;;;;5033646;28;20203;-47
2022/10/16 04:46:47;;;;;;;0.90;0.90;;;12.70;99.90;;;;;;5040178;28;20656;-53
2022/10/16 04:49:14;;;;;;;5.07;1.17;;;12.70;99.90;;;;;;5030323;28;20962;-48
2022/10/16 04:51:42;;;;;;;1.60;1.50;;;12.70;99.90;;;;;;5043616;28;20197;-51
2022/10/16 04:54:10;;;;;;;2.00;1.20;;;12.70;99.90;;;;;;5040182;28;20195;-49
2022/10/16 04:56:42;;;;;;;2.23;1.20;;;12.60;99.90;;;;;;5042885;28;20563;-48
2022/10/16 04:59:10;;;;;;;3.73;1.30;;;12.60;99.90;;;;;;5027879;28;20218;-52
2022/10/16 05:01:37;;;;;;;3.27;1.10;;;12.60;99.90;;;;;;5042722;28;20222;-47
2022/10/16 05:04:04;;;;;;;1.67;1.37;;;12.60;99.90;;;;;;5032057;28;20896;-49
2022/10/16 05:06:31;;;;;;;3.03;1.80;;;12.60;99.90;;;;;;5043673;28;20195;-46
2022/10/16 05:08:59;;;;;;;3.23;1.20;;;12.60;99.90;;;;;;5040383;28;20686;-52
2022/10/16 05:11:26;;;;;;;3.80;1.20;;;12.60;99.90;;;;;;5042398;28;20269;-49
2022/10/16 05:13:53;;;;;;;3.67;1.37;;;12.60;99.90;;;;;;5023168;28;20219;-50
2022/10/16 05:16:20;;;;;;;3.97;1.60;;;12.60;99.90;;;;;;5038801;28;20206;-47
2022/10/16 05:18:47;;;;;;;4.70;1.50;;;12.60;99.90;;;;;;5034666;28;20230;-52
2022/10/16 05:21:14;;;;;;;4.97;1.60;;;12.60;99.90;;;;;;5040480;28;20211;-49
2022/10/16 05:23:41;;;;;;;3.83;1.63;;;12.60;99.90;;;;;;5042053;28;20199;-51
2022/10/16 05:26:10;;;;;;;2.97;1.60;;;12.60;99.90;;;;;;5040323;28;20288;-49
2022/10/16 05:28:37;;;;;;;2.73;1.50;;;12.60;99.90;;;;;;5029049;28;20209;-46
2022/10/16 05:31:06;;;;;;;2.87;1.70;;;12.60;99.90;;;;;;5034623;28;20211;-47
2022/10/16 05:33:33;;;;;;;3.83;1.77;;;12.60;99.90;;;;;;5034763;28;20198;-48
2022/10/16 05:36:02;;;;;;;3.70;1.83;;;12.70;99.90;;;;;;5039027;28;20784;-46
2022/10/16 05:38:29;;;;;;;3.90;1.80;;;12.70;99.90;;;;;;5043556;28;20241;-49
2022/10/16 05:40:57;;;;;;;3.13;1.70;;;12.70;99.90;;;;;;5038826;28;20692;-48
2022/10/16 05:43:25;;;;;;;5.97;2.30;;;12.70;99.90;;;;;;5042632;28;20664;-48
2022/10/16 05:45:56;;;;;;;2.83;2.40;;;12.70;99.90;;;;;;5012865;28;20214;-46
2022/10/16 05:48:23;;;;;;;3.30;2.20;;;12.70;99.90;;;;;;5042942;28;20206;-51
2022/10/16 05:50:57;;;;;;;2.97;2.40;;;12.70;99.90;;;;;;5027563;28;20223;-47
2022/10/16 05:53:25;;;;;;;3.30;2.40;;;12.80;99.90;;;;;;5041714;28;20233;-50
2022/10/16 05:55:53;;;;;;;2.03;1.83;;;12.80;99.90;;;;;;5040120;28;20954;-49
2022/10/16 05:58:20;;;;;;;5.90;2.33;;;12.80;99.90;;;;;;5042347;28;20656;-50
2022/10/16 06:00:55;;;;;;;5.67;2.37;;;12.80;99.90;;;;;;5020647;28;20868;-47
2022/10/16 06:03:22;;;;;;;3.67;2.10;;;12.80;99.90;;;;;;5034162;28;20195;-49
2022/10/16 06:05:49;;;;;;;3.80;2.20;;;12.80;99.90;;;;;;5029857;28;20205;-47
2022/10/16 06:08:16;;;;;;;3.37;2.27;;;12.80;99.90;;;;;;5033321;28;20207;-52
2022/10/16 06:10:43;;;;;;;3.17;2.13;;;12.80;99.90;;;;;;5035529;28;20230;-51
2022/10/16 06:13:10;;;;;;;5.63;2.20;;;12.80;99.90;;;;;;5034981;28;20274;-49
2022/10/16 06:15:39;;;;;;;2.17;1.90;;;12.80;99.90;;;;;;5022069;28;20211;-48
2022/10/16 06:18:07;;;;;;;3.83;1.80;;;12.90;99.90;;;;;;5035160;28;20200;-45
2022/10/16 06:20:34;;;;;;;3.60;1.57;;;12.90;99.90;;;;;;5026665;28;20742;-51
2022/10/16 06:23:01;;;;;;;4.93;1.70;;;12.90;99.90;;;;;;5033326;28;20198;-47
2022/10/16 06:25:28;;;;;;;3.67;2.17;;;12.90;99.90;;;;;;5031680;28;20211;-53
2022/10/16 06:27:55;;;;;;;2.37;1.87;;;12.90;99.90;;;;;;5031576;28;20214;-48
2022/10/16 06:30:21;;;;;;;3.07;2.00;;;12.90;99.90;;;;;;5033956;28;20219;-48
2022/10/16 06:32:48;;;;;;;4.77;1.50;;;13.00;99.90;;;;;;5027720;28;20302;-47
2022/10/16 06:35:16;;;;;;;3.20;1.60;;;13.00;99.90;;;;;;5035562;28;20656;-51
2022/10/16 06:37:43;;;;;;;3.50;1.70;;;13.00;99.90;;;;;;5027349;28;22931;-48
2022/10/16 06:40:11;;;;;;;4.63;1.90;;;13.10;99.90;;;;;;5033221;28;20215;-51
2022/10/16 06:42:38;;;;;;;3.77;1.87;;;13.10;99.90;;;;;;5029720;28;20203;-49
2022/10/16 06:45:05;;;;;;;5.00;1.80;;;13.10;99.90;;;;;;5030627;28;20207;-48
2022/10/16 06:47:32;;;;;;;4.00;1.83;;;13.20;99.90;;;;;;5018179;28;21143;-49
2022/10/16 06:49:59;;;;;;;3.67;1.60;;;13.20;99.90;;;;;;5033455;28;20224;-50
2022/10/16 06:52:29;;;;;;;3.47;1.70;;;13.30;99.90;;;;;;5033122;28;20199;-47
2022/10/16 06:54:55;;;;;;;3.27;1.70;;;13.30;99.90;;;;;;5033503;28;20553;-49
2022/10/16 06:57:22;;;;;;;1.90;1.60;;;13.40;99.90;;;;;;5039127;28;20210;-52
2022/10/16 06:59:49;;;;;;;2.83;1.90;;;13.50;99.90;;;;;;5034655;28;20566;-46
2022/10/16 07:02:16;;;;;;;2.27;1.80;;;13.60;99.90;;;;;;5031439;28;20221;-52
2022/10/16 07:04:42;;;;;;;3.90;1.50;;;13.70;99.90;;;;;;5025539;28;20206;-47
2022/10/16 07:07:10;;;;;;;5.47;2.00;;;13.80;99.90;;;;;;5027295;28;20288;-49
2022/10/16 07:09:38;;;;;;;3.50;1.97;;;14.00;99.90;;;;;;5021275;28;20216;-50
2022/10/16 07:12:05;;;;;;;6.37;1.70;;;14.10;99.90;;;;;;5039400;28;20233;-50
2022/10/16 07:14:32;;;;;;;4.17;1.87;;;14.20;99.90;;;;;;5024328;28;20187;-46
2022/10/16 07:16:59;;;;;;;4.20;2.20;;;14.30;99.90;;;;;;5035400;28;20685;-47
2022/10/16 07:19:26;;;;;;;3.67;2.30;;;14.30;99.90;;;;;;5022222;28;20211;-47
2022/10/16 07:21:53;;;;;;;3.03;2.03;;;14.30;99.90;;;;;;5025460;28;20227;-46
2022/10/16 07:24:20;;;;;;;2.57;2.37;;;14.40;99.90;;;;;;5033492;28;20278;-50
2022/10/16 07:26:48;;;;;;;5.70;1.90;;;14.40;99.90;;;;;;5028367;28;20210;-48
2022/10/16 07:29:17;;;;;;;5.43;2.27;;;14.40;99.90;;;;;;5036002;28;20195;-50
2022/10/16 07:31:45;;;;;;;2.50;2.17;;;14.40;99.90;;;;;;5039846;28;20195;-47
2022/10/16 07:34:13;;;;;;;4.13;2.20;;;14.40;99.90;;;;;;5028951;28;20210;-48
2022/10/16 07:36:40;;;;;;;3.33;1.73;;;14.40;99.90;;;;;;5024511;28;20490;-45
2022/10/16 07:39:08;;;;;;;4.10;2.00;;;14.40;99.90;;;;;;5032462;28;20214;-45
2022/10/16 07:41:36;;;;;;;2.17;1.97;;;14.50;99.90;;;;;;5030019;28;21012;-49
2022/10/16 07:44:05;;;;;;;3.20;2.43;;;14.50;99.90;;;;;;5041640;28;20257;-50
2022/10/16 07:46:33;;;;;;;4.47;2.27;;;14.50;99.90;;;;;;5039946;28;20909;-46
2022/10/16 07:49:00;;;;;;;7.10;2.47;;;14.60;99.90;;;;;;5033651;28;20652;-45
2022/10/16 07:51:27;;;;;;;5.90;2.33;;;14.70;99.90;;;;;;5026520;28;20219;-52
2022/10/16 07:53:54;;;;;;;3.27;2.97;;;14.80;99.90;;;;;;5034839;28;20203;-46
2022/10/16 07:56:22;;;;;;;3.60;2.40;;;14.80;99.90;;;;;;5041850;28;20201;-51
2022/10/16 07:58:50;;;;;;;2.50;2.30;;;14.90;99.90;;;;;;5039155;28;20269;-45
2022/10/16 08:01:19;;;;;;;3.97;2.93;;;14.90;99.90;;;;;;5030458;28;20227;-52
2022/10/16 08:03:48;;;;;;;5.73;2.37;;;14.80;99.90;;;;;;5041578;28;20206;-46
2022/10/16 08:06:15;;;;;;;2.27;2.00;;;14.80;99.90;;;;;;5023402;28;20207;-51
2022/10/16 08:08:42;;;;;;;3.77;1.97;;;14.80;99.90;;;;;;5042068;28;20325;-46
2022/10/16 08:11:09;;;;;;;3.17;2.40;;;14.70;99.90;;;;;;5035636;28;20294;-51
2022/10/16 08:13:37;;;;;;;2.50;2.30;;;14.70;99.90;;;;;;5025689;28;20207;-47
2022/10/16 08:16:07;;;;;;;2.50;2.30;;;14.80;99.90;;;;;;5031436;28;21118;-49
2022/10/16 08:18:36;;;;;;;3.77;2.63;;;14.80;99.90;;;;;;5025493;28;20433;-45
2022/10/16 08:21:04;;;;;;;2.30;2.10;;;14.80;99.90;;;;;;5028517;28;20301;-49
2022/10/16 08:23:31;;;;;;;3.67;2.20;;;14.90;99.90;;;;;;5039605;28;20195;-45
2022/10/16 08:26:04;;;;;;;3.07;2.47;;;14.80;99.90;;;;;;5038018;28;20298;-46
2022/10/16 08:28:31;;;;;;;3.90;2.80;;;14.90;99.90;;;;;;5026946;28;20206;-51
2022/10/16 08:31:06;;;;;;;4.27;2.23;;;15.00;99.90;;;;;;5038504;28;20223;-48
2022/10/16 08:33:34;;;;;;;2.83;2.00;;;15.10;99.90;;;;;;5029233;28;20210;-49
2022/10/16 08:36:03;;;;;;;3.40;2.07;;;15.20;99.90;;;;;;5034041;28;20254;-50
2022/10/16 08:38:30;;;;;;;3.00;2.30;;;15.30;99.90;;;;;;5017077;28;20192;-46
2022/10/16 08:41:09;;;;;;;4.67;2.53;;;15.30;99.90;;;;;;5034943;28;20220;-47
2022/10/16 08:43:55;;;;;;;4.03;2.47;;;15.40;99.90;;;;;;5029255;28;20203;-47
2022/10/16 08:46:38;;;;;;;4.30;2.40;;;15.30;99.90;;;;;;5030153;28;20255;-51
2022/10/16 08:49:12;;;;;;;2.70;2.43;;;15.30;99.90;;;;;;5027730;28;20676;-51
2022/10/16 08:51:41;;;;;;;2.50;2.00;;;15.20;99.90;;;;;;5024612;28;20223;-45
2022/10/16 08:54:29;;;;;;;3.57;2.20;;;15.20;99.90;;;;;;5033510;28;20659;-50
2022/10/16 08:56:57;;;;;;;3.40;2.20;;;15.20;99.90;;;;;;5028486;28;20282;-52
2022/10/16 08:59:23;;;;;;;2.53;2.30;;;15.10;99.90;;;;;;5031385;28;20222;-49
2022/10/16 09:01:52;;;;;;;2.97;2.10;;;15.20;99.90;;;;;;5032139;28;20223;-50
2022/10/16 09:04:43;;;;;;;2.60;2.33;;;15.30;99.90;;;;;;5034988;28;20207;-51
2022/10/16 09:07:18;;;;;;;2.67;2.00;;;15.40;99.90;;;;;;5027083;28;20591;-52
2022/10/16 09:09:57;;;;;;;2.67;2.20;;;15.40;99.90;;;;;;5042930;28;20211;-51
2022/10/16 09:12:31;;;;;;;4.10;2.20;;;15.40;99.90;;;;;;5024108;28;20199;-52
2022/10/16 09:15:06;;;;;;;3.23;2.07;;;15.40;99.90;;;;;;5042771;28;20675;-49
2022/10/16 09:17:45;;;;;;;2.90;1.93;;;15.50;99.90;;;;;;5033424;28;20194;-51
2022/10/16 09:20:21;;;;;;;4.60;1.73;;;15.50;99.90;;;;;;5027607;28;20290;-51
2022/10/16 09:22:52;;;;;;;2.23;1.43;;;15.60;99.90;;;;;;5025878;28;20215;-49
2022/10/16 09:25:22;;;;;;;2.50;1.57;;;15.60;99.90;;;;;;5037928;28;20202;-53
2022/10/16 09:27:53;;;;;;;2.87;1.50;;;15.70;99.90;;;;;;5029108;28;21024;-47
2022/10/16 09:30:22;;;;;;;4.77;1.20;;;15.70;99.90;;;;;;5028268;28;20225;-47
2022/10/16 09:32:53;;;;;;;4.80;2.00;;;15.70;99.90;;;;;;5041465;28;20659;-47
2022/10/16 09:35:23;;;;;;;2.97;1.50;;;15.80;99.90;;;;;;5034725;28;20196;-49
2022/10/16 09:37:55;;;;;;;2.53;1.10;;;15.80;99.90;;;;;;5026395;28;20218;-49
2022/10/16 09:40:26;;;;;;;3.53;1.47;;;15.90;99.90;;;;;;5025096;28;20230;-53
2022/10/16 09:42:58;;;;;;;2.20;1.20;;;16.10;99.90;;;;;;5028722;28;20592;-48
2022/10/16 09:45:25;;;;;;;4.10;1.47;;;16.10;99.90;;;;;;5035559;28;21297;-50
2022/10/16 09:47:52;;;;;;;5.40;1.50;;;16.20;99.90;;;;;;5031961;28;20348;-49
2022/10/16 09:50:26;;;;;;;6.90;1.20;;;16.30;99.90;;;;;;5037207;28;20211;-53
2022/10/16 09:53:05;;;;;;;2.37;1.40;;;16.30;99.90;;;;;;5024086;28;20715;-47
2022/10/16 09:55:32;;;;;;;1.57;1.10;;;16.40;99.90;;;;;;5036216;28;20195;-50
2022/10/16 09:57:59;;;;;;;1.53;1.07;;;16.40;99.90;;;;;;5037240;28;20202;-48
2022/10/16 10:00:26;;;;;;;3.13;1.10;;;16.50;99.90;;;;;;5038191;28;20247;-47
2022/10/16 10:02:55;;;;;;;1.43;1.20;;;16.60;99.90;;;;;;5037215;28;20641;-49
2022/10/16 10:05:24;;;;;;;3.13;1.37;;;16.60;99.90;;;;;;5038341;28;20207;-53
2022/10/16 10:07:56;;;;;;;1.40;1.20;;;16.60;99.90;;;;;;5019570;28;20207;-47
2022/10/16 10:10:27;;;;;;;1.67;1.00;;;16.70;99.90;;;;;;5041458;28;20247;-52
2022/10/16 10:12:55;;;;;;;4.87;1.30;;;16.70;99.90;;;;;;5047204;28;20199;-47
2022/10/16 10:15:23;;;;;;;3.63;1.20;;;16.70;99.90;;;;;;5036265;28;20195;-48
2022/10/16 10:17:52;;;;;;;5.40;1.73;;;16.70;99.90;;;;;;5046361;28;20219;-49
2022/10/16 10:20:25;;;;;;;3.50;1.00;;;16.70;99.90;;;;;;5037587;28;20227;-49
2022/10/16 10:22:52;;;;;;;0.83;0.83;;;16.80;99.90;;;;;;5046991;28;20245;-45
2022/10/16 10:25:39;;;;;;;4.10;1.20;;;16.90;99.90;;;;;;5030019;28;20203;-49
2022/10/16 10:28:30;;;;;;;4.20;1.10;;;17.00;99.90;;;;;;5046408;28;20207;-49
2022/10/16 10:31:03;;;;;;;2.53;1.37;;;17.00;99.90;;;;;;5039633;28;20238;-49
2022/10/16 10:33:38;;;;;;;3.77;1.10;;;16.90;99.90;;;;;;5035272;28;20215;-50
2022/10/16 10:36:15;;;;;;;2.53;0.93;;;17.00;99.90;;;;;;5046188;28;20199;-51
2022/10/16 10:38:51;;;;;;;2.67;1.07;;;17.00;99.90;;;;;;5031278;28;20207;-49
2022/10/16 10:41:40;;;;;;;5.00;1.27;;;17.00;99.90;;;;;;5043013;28;20211;-53
2022/10/16 10:44:17;;;;;;;4.03;1.20;;;17.20;99.90;;;;;;5044615;28;20199;-50
2022/10/16 10:46:51;;;;;;;2.80;1.03;;;17.30;99.90;;;;;;5038565;28;20202;-45
2022/10/16 10:49:43;;;;;;;2.23;1.00;;;17.40;99.90;;;;;;5038824;28;20191;-47
2022/10/16 10:52:35;;;;;;;4.50;1.30;;;17.40;99.90;;;;;;5045465;28;20577;-50
2022/10/16 10:55:18;;;;;;;0.93;0.73;;;17.30;99.90;;;;;;5030563;28;20195;-50
2022/10/16 10:58:11;;;;;;;2.27;1.00;;;17.20;99.90;;;;;;5045439;28;20195;-49
2022/10/16 11:00:48;;;;;;;1.77;0.83;;;17.10;99.90;;;;;;5037500;28;20993;-47
2022/10/16 11:03:28;;;;;;;3.80;1.00;;;17.10;99.90;;;;;;5040218;28;20215;-53
2022/10/16 11:05:59;;;;;;;2.80;0.70;;;17.20;99.90;;;;;;5038885;28;20684;-47
2022/10/16 11:08:33;;;;;;;2.07;0.80;;;17.30;99.90;;;;;;5042611;28;20255;-45
2022/10/16 11:11:05;;;;;;;1.93;0.80;;;17.30;99.90;;;;;;5030163;28;20304;-47
2022/10/16 11:13:39;;;;;;;0.90;0.63;;;17.40;99.90;;;;;;5041464;28;20274;-51
2022/10/16 11:16:16;;;;;;;2.97;0.77;;;17.40;99.90;;;;;;5038707;28;20199;-48
2022/10/16 11:18:50;;;;;;;1.40;0.60;;;17.40;99.90;;;;;;5044039;28;20257;-47
2022/10/16 11:21:21;;;;;;;3.43;0.80;;;17.50;99.90;;;;;;5037684;28;20226;-50
2022/10/16 11:23:55;;;;;;;1.83;1.00;;;17.50;99.90;;;;;;5044616;28;20192;-45
2022/10/16 11:26:25;;;;;;;3.80;1.00;;;17.50;99.90;;;;;;5026239;28;20211;-47
2022/10/16 11:28:55;;;;;;;3.77;1.30;;;17.50;99.90;;;;;;5045864;28;20192;-47
2022/10/16 11:31:31;;;;;;;3.03;0.90;;;17.50;99.90;;;;;;5036202;28;20211;-50
2022/10/16 11:34:05;;;;;;;3.73;0.97;;;17.60;99.90;;;;;;5042614;28;20206;-45
2022/10/16 11:36:37;;;;;;;4.20;0.97;;;17.60;99.90;;;;;;5035089;28;20207;-49
2022/10/16 11:39:19;;;;;;;2.30;1.00;;;17.70;99.90;;;;;;5045354;28;20249;-48
2022/10/16 11:41:49;;;;;;;2.10;0.80;;;17.70;99.90;;;;;;5027129;28;20305;-48
2022/10/16 11:44:35;;;;;;;1.37;0.60;;;17.60;99.90;;;;;;5041428;28;20572;-53
2022/10/16 11:47:13;;;;;;;5.00;0.70;;;17.70;99.90;;;;;;5042497;28;20199;-49
2022/10/16 11:49:41;;;;;;;2.20;0.53;;;17.70;99.90;;;;;;5041250;28;20247;-50
2022/10/16 11:52:17;;;;;;;2.63;0.77;;;17.90;99.90;;;;;;5043221;28;20195;-51
2022/10/16 11:54:49;;;;;;;3.43;0.90;;;18.00;99.90;;;;;;5041387;28;20203;-47
2022/10/16 11:57:21;;;;;;;1.93;0.50;;;18.00;99.90;;;;;;5026905;28;20278;-52
2022/10/16 11:59:56;;;;;;;1.50;0.50;;;17.90;99.90;;;;;;5042684;28;20269;-51
2022/10/16 12:02:39;;;;;;;3.20;0.80;;;17.90;99.90;;;;;;5034436;28;20260;-50
2022/10/16 12:05:19;;;;;;;1.33;0.60;;;17.90;99.90;;;;;;5043197;28;20680;-51
2022/10/16 12:07:52;;;;;;;1.80;0.77;;;18.00;99.90;;;;;;5045122;28;20218;-51
2022/10/16 12:10:24;;;;;;;5.07;0.87;;;18.00;99.90;;;;;;5022652;28;20219;-47
2022/10/16 12:12:51;;;;;;;3.70;0.90;;;18.00;99.90;;;;;;5041593;28;20196;-46
2022/10/16 12:15:26;;;;;;;2.10;0.97;;;18.00;99.90;;;;;;5039354;28;20678;-50
2022/10/16 12:17:53;;;;;;;3.23;0.70;;;18.10;99.90;;;;;;5044007;28;20194;-49
2022/10/16 12:20:27;;;;;;;1.93;0.70;;;18.10;99.90;;;;;;5034898;28;20297;-51
2022/10/16 12:22:56;;;;;;;3.20;0.80;;;18.20;99.90;;;;;;5043695;28;20338;-48
2022/10/16 12:25:27;;;;;;;1.93;0.70;;;18.20;99.90;;;;;;5033573;28;20223;-48
2022/10/16 12:28:00;;;;;;;2.90;0.70;;;18.10;99.90;;;;;;5030474;28;20219;-46
2022/10/16 12:30:32;;;;;;;4.30;1.10;;;18.20;99.90;;;;;;5040151;28;20307;-47
2022/10/16 12:33:02;;;;;;;2.93;0.70;;;18.20;99.90;;;;;;5043529;28;20230;-47
2022/10/16 12:35:32;;;;;;;2.67;1.03;;;18.20;99.90;;;;;;5026045;28;21519;-47
2022/10/16 12:38:08;;;;;;;2.13;0.80;;;18.10;99.90;;;;;;5044302;28;20657;-48
2022/10/16 12:40:37;;;;;;;2.47;0.70;;;18.10;99.90;;;;;;5035372;28;20215;-46
2022/10/16 12:43:26;;;;;;;1.63;0.90;;;18.20;99.90;;;;;;5029744;28;20310;-48
2022/10/16 12:46:04;;;;;;;5.20;0.83;;;18.20;99.90;;;;;;5043618;28;20660;-47
2022/10/16 12:48:31;;;;;;;3.63;1.03;;;18.20;99.90;;;;;;5039547;28;20273;-49
2022/10/16 12:50:58;;;;;;;4.27;0.80;;;18.20;99.90;;;;;;5038144;28;20255;-50
2022/10/16 12:53:28;;;;;;;2.30;0.70;;;18.20;99.90;;;;;;5033121;28;20269;-48
2022/10/16 12:56:05;;;;;;;4.47;0.90;;;18.30;99.90;;;;;;5043452;28;20571;-48
2022/10/16 12:58:50;;;;;;;3.57;0.80;;;18.30;99.90;;;;;;5025473;28;20214;-49
2022/10/16 13:01:29;;;;;;;2.90;0.87;;;18.30;99.90;;;;;;5039690;28;20250;-50
2022/10/16 13:04:14;;;;;;;3.73;0.80;;;18.30;99.90;;;;;;5043236;28;20214;-47